Time;durP1;ratioP1;P1;durP2;ratioP2;P2;SDS_P1;SDS_P2;PMS_P1;PMS_P2;Temp;Humidity;BMP_temperature;BMP_pressure;BME280_temperature;BME280_humidity;BME280_pressure;Samples;Min_cycle;Max_cycle;Signal;HPM_P1;HPM_P2
2022/09/17 00:00:46;;;;;;;0.20;0.10;;;;;;;;;;4178711;28;20060;-48
2022/09/17 00:02:54;;;;;;;0.10;0.10;;;;;;;;;;4178043;28;20472;-47
2022/09/17 00:04:56;;;;;;;0.40;0.10;;;;;;;;;;4178629;28;20472;-49
2022/09/17 00:06:57;;;;;;;0.35;0.13;;;;;;;;;;4178773;28;20087;-48
2022/09/17 00:08:58;;;;;;;0.10;0.10;;;;;;;;;;4178746;28;20190;-51
2022/09/17 00:11:13;;;;;;;0.08;0.08;;;;;;;;;;4179327;28;20448;-49
2022/09/17 00:13:15;;;;;;;0.20;0.20;;;;;;;;;;4180186;28;20111;-48
2022/09/17 00:15:16;;;;;;;0.10;0.10;;;;;;;;;;4181708;28;20049;-48
2022/09/17 00:17:18;;;;;;;0.00;0.00;;;;;;;;;;4179803;28;20110;-49
2022/09/17 00:19:21;;;;;;;0.00;0.00;;;;;;;;;;4181634;28;20049;-49
2022/09/17 00:21:23;;;;;;;0.10;0.10;;;;;;;;;;4181680;28;20554;-48
2022/09/17 00:23:24;;;;;;;0.00;0.00;;;;;;;;;;4163819;28;20103;-48
2022/09/17 00:25:25;;;;;;;0.10;0.10;;;;;;;;;;4181723;28;20049;-51
2022/09/17 00:27:26;;;;;;;0.10;0.10;;;;;;;;;;4181626;28;20068;-51
2022/09/17 00:29:27;;;;;;;0.10;0.10;;;;;;;;;;4181448;28;20455;-48
2022/09/17 00:31:29;;;;;;;0.25;0.20;;;;;;;;;;4181825;28;20064;-47
2022/09/17 00:33:30;;;;;;;0.20;0.10;;;;;;;;;;4181207;28;20122;-47
2022/09/17 00:35:31;;;;;;;0.10;0.10;;;;;;;;;;4181402;28;20099;-49
2022/09/17 00:37:33;;;;;;;0.05;0.00;;;;;;;;;;4181663;28;20079;-49
2022/09/17 00:39:34;;;;;;;0.38;0.10;;;;;;;;;;4181228;28;20083;-47
2022/09/17 00:41:36;;;;;;;0.10;0.05;;;;;;;;;;4181347;28;20122;-47
2022/09/17 00:43:49;;;;;;;0.00;0.00;;;;;;;;;;4179816;28;20516;-51
2022/09/17 00:45:52;;;;;;;0.28;0.10;;;;;;;;;;4181199;28;20119;-49
2022/09/17 00:47:58;;;;;;;0.30;0.20;;;;;;;;;;4179233;28;20390;-47
2022/09/17 00:50:21;;;;;;;0.10;0.10;;;;;;;;;;4181098;28;20053;-48
2022/09/17 00:52:26;;;;;;;0.20;0.10;;;;;;;;;;4180962;28;20053;-49
2022/09/17 00:54:28;;;;;;;0.17;0.10;;;;;;;;;;4181263;28;20106;-48
2022/09/17 00:56:32;;;;;;;0.10;0.10;;;;;;;;;;4180871;28;20052;-49
2022/09/17 00:58:34;;;;;;;0.20;0.10;;;;;;;;;;4181010;28;20064;-50
2022/09/17 01:00:36;;;;;;;0.00;0.00;;;;;;;;;;4181235;28;20170;-49
2022/09/17 01:02:37;;;;;;;0.22;0.10;;;;;;;;;;4180553;28;20107;-49
2022/09/17 01:04:38;;;;;;;0.20;0.10;;;;;;;;;;4180898;28;20111;-49
2022/09/17 01:06:50;;;;;;;0.00;0.00;;;;;;;;;;4181249;28;20110;-48
2022/09/17 01:09:09;;;;;;;0.28;0.10;;;;;;;;;;4179445;28;20057;-51
2022/09/17 01:12:02;;;;;;;0.10;0.10;;;;;;;;;;4180655;28;20064;-48
2022/09/17 01:14:32;;;;;;;0.75;0.10;;;;;;;;;;4163912;28;20128;-48
2022/09/17 01:16:45;;;;;;;0.20;0.10;;;;;;;;;;4163044;28;20064;-49
2022/09/17 01:19:07;;;;;;;0.10;0.10;;;;;;;;;;4162309;28;20057;-48
2022/09/17 01:21:29;;;;;;;0.10;0.10;;;;;;;;;;4164608;28;20053;-49
2022/09/17 01:24:01;;;;;;;0.08;0.08;;;;;;;;;;4164225;28;20624;-50
2022/09/17 01:26:34;;;;;;;0.10;0.00;;;;;;;;;;4162753;28;20434;-49
2022/09/17 01:28:41;;;;;;;0.10;0.10;;;;;;;;;;4163957;28;20107;-49
2022/09/17 01:31:05;;;;;;;0.15;0.10;;;;;;;;;;4162515;28;20057;-49
2022/09/17 01:33:45;;;;;;;0.10;0.03;;;;;;;;;;4161239;28;20493;-52
2022/09/17 01:36:25;;;;;;;0.10;0.10;;;;;;;;;;4163853;28;20061;-52
2022/09/17 01:38:31;;;;;;;0.10;0.10;;;;;;;;;;4152157;28;20092;-49
2022/09/17 01:40:44;;;;;;;0.17;0.10;;;;;;;;;;4163911;28;20126;-51
2022/09/17 01:42:54;;;;;;;0.00;0.00;;;;;;;;;;4162531;28;20057;-47
2022/09/17 01:45:03;;;;;;;0.10;0.10;;;;;;;;;;4147529;28;20053;-51
2022/09/17 01:47:29;;;;;;;0.10;0.10;;;;;;;;;;4146139;28;20096;-48
2022/09/17 01:49:31;;;;;;;0.10;0.10;;;;;;;;;;4130148;28;20473;-49
2022/09/17 01:51:39;;;;;;;0.22;0.10;;;;;;;;;;4146218;28;20054;-47
2022/09/17 01:54:04;;;;;;;0.20;0.10;;;;;;;;;;4145865;28;20486;-48
2022/09/17 01:56:08;;;;;;;0.10;0.10;;;;;;;;;;4147433;28;20057;-48
2022/09/17 01:58:21;;;;;;;0.22;0.10;;;;;;;;;;4145958;28;20058;-48
2022/09/17 02:00:22;;;;;;;0.20;0.10;;;;;;;;;;4147519;28;20050;-48
2022/09/17 02:02:31;;;;;;;0.10;0.10;;;;;;;;;;4159000;28;20068;-50
2022/09/17 02:04:37;;;;;;;0.10;0.08;;;;;;;;;;4157155;28;20064;-48
2022/09/17 02:06:42;;;;;;;0.00;0.00;;;;;;;;;;4145048;28;20054;-46
2022/09/17 02:08:56;;;;;;;0.00;0.00;;;;;;;;;;4145101;28;20084;-49
2022/09/17 02:11:07;;;;;;;0.00;0.00;;;;;;;;;;4145254;28;20100;-49
2022/09/17 02:13:14;;;;;;;0.10;0.10;;;;;;;;;;4143964;28;20476;-49
2022/09/17 02:15:21;;;;;;;0.05;0.05;;;;;;;;;;4161443;28;20065;-47
2022/09/17 02:17:34;;;;;;;0.10;0.10;;;;;;;;;;4143175;28;20139;-48
2022/09/17 02:19:37;;;;;;;0.30;0.10;;;;;;;;;;4160062;28;20108;-48
2022/09/17 02:21:50;;;;;;;0.10;0.10;;;;;;;;;;4143842;28;20144;-49
2022/09/17 02:24:18;;;;;;;0.00;0.00;;;;;;;;;;4159577;28;20512;-48
2022/09/17 02:26:20;;;;;;;0.10;0.08;;;;;;;;;;4161714;28;20115;-49
2022/09/17 02:28:35;;;;;;;0.00;0.00;;;;;;;;;;4160780;28;20060;-48
2022/09/17 02:30:36;;;;;;;0.00;0.00;;;;;;;;;;4161135;28;20064;-48
2022/09/17 02:32:37;;;;;;;0.10;0.10;;;;;;;;;;4160651;28;20057;-49
2022/09/17 02:34:38;;;;;;;0.00;0.00;;;;;;;;;;4161169;28;20068;-48
2022/09/17 02:36:39;;;;;;;0.00;0.00;;;;;;;;;;4161214;28;20057;-49
2022/09/17 02:38:43;;;;;;;0.00;0.00;;;;;;;;;;4161271;28;20115;-48
2022/09/17 02:40:48;;;;;;;0.05;0.03;;;;;;;;;;4160769;28;20065;-48
2022/09/17 02:43:40;;;;;;;0.00;0.00;;;;;;;;;;4160877;28;20460;-49
2022/09/17 02:46:16;;;;;;;0.03;0.03;;;;;;;;;;4142147;28;20580;-48
2022/09/17 02:48:50;;;;;;;0.10;0.10;;;;;;;;;;4157318;28;20061;-46
2022/09/17 02:51:04;;;;;;;0.03;0.00;;;;;;;;;;4159490;28;20493;-47
2022/09/17 02:53:19;;;;;;;0.00;0.00;;;;;;;;;;4159540;28;20119;-51
2022/09/17 02:55:51;;;;;;;0.10;0.10;;;;;;;;;;4161770;28;20429;-50
2022/09/17 02:58:23;;;;;;;0.00;0.00;;;;;;;;;;4153359;28;20347;-48
2022/09/17 03:00:27;;;;;;;0.20;0.10;;;;;;;;;;4157577;28;20083;-50
2022/09/17 03:02:33;;;;;;;0.00;0.00;;;;;;;;;;4162540;28;20065;-49
2022/09/17 03:04:37;;;;;;;0.00;0.00;;;;;;;;;;4162515;28;20053;-48
2022/09/17 03:06:39;;;;;;;0.00;0.00;;;;;;;;;;4160964;28;20095;-49
2022/09/17 03:08:41;;;;;;;0.00;0.00;;;;;;;;;;4162836;28;20064;-49
2022/09/17 03:10:43;;;;;;;0.10;0.10;;;;;;;;;;4162188;28;20061;-50
2022/09/17 03:12:44;;;;;;;0.00;0.00;;;;;;;;;;4162560;28;20076;-48
2022/09/17 03:14:45;;;;;;;0.00;0.00;;;;;;;;;;4162638;28;20616;-50
2022/09/17 03:16:46;;;;;;;0.10;0.03;;;;;;;;;;4162938;28;20049;-48
2022/09/17 03:18:48;;;;;;;0.40;0.10;;;;;;;;;;4162182;28;20413;-48
2022/09/17 03:20:49;;;;;;;0.08;0.00;;;;;;;;;;4145141;28;20058;-48
2022/09/17 03:22:51;;;;;;;0.00;0.00;;;;;;;;;;4161309;28;20057;-48
2022/09/17 03:24:52;;;;;;;0.20;0.10;;;;;;;;;;4162605;28;20091;-46
2022/09/17 03:26:53;;;;;;;0.15;0.10;;;;;;;;;;4162770;28;20063;-48
2022/09/17 03:28:55;;;;;;;0.10;0.10;;;;;;;;;;4162791;28;20057;-47
2022/09/17 03:30:56;;;;;;;0.20;0.15;;;;;;;;;;4161262;28;20512;-51
2022/09/17 03:32:57;;;;;;;0.10;0.10;;;;;;;;;;4162365;28;20049;-48
2022/09/17 03:34:58;;;;;;;0.35;0.10;;;;;;;;;;4162553;28;20570;-48
2022/09/17 03:36:59;;;;;;;0.10;0.10;;;;;;;;;;4161155;28;20061;-49
2022/09/17 03:39:01;;;;;;;0.00;0.00;;;;;;;;;;4162641;28;20123;-48
2022/09/17 03:41:05;;;;;;;0.28;0.10;;;;;;;;;;4162378;28;20483;-48
2022/09/17 03:43:07;;;;;;;0.40;0.10;;;;;;;;;;4162209;28;20053;-49
2022/09/17 03:45:08;;;;;;;0.10;0.10;;;;;;;;;;4162284;28;20050;-48
2022/09/17 03:47:11;;;;;;;0.08;0.08;;;;;;;;;;4163428;28;20053;-49
2022/09/17 03:49:12;;;;;;;0.00;0.00;;;;;;;;;;4164274;28;20053;-52
2022/09/17 03:51:13;;;;;;;0.10;0.08;;;;;;;;;;4165775;28;20477;-48
2022/09/17 03:53:14;;;;;;;0.05;0.00;;;;;;;;;;4165516;28;20243;-49
2022/09/17 03:55:16;;;;;;;0.10;0.10;;;;;;;;;;4164257;28;20057;-49
2022/09/17 03:57:17;;;;;;;0.10;0.10;;;;;;;;;;4165217;28;20095;-51
2022/09/17 03:59:19;;;;;;;0.08;0.00;;;;;;;;;;4164288;28;20054;-49
2022/09/17 04:01:20;;;;;;;0.10;0.10;;;;;;;;;;4165492;28;20452;-48
2022/09/17 04:03:21;;;;;;;0.10;0.10;;;;;;;;;;4164580;28;20111;-49
2022/09/17 04:05:22;;;;;;;0.00;0.00;;;;;;;;;;4165530;28;20080;-49
2022/09/17 04:07:23;;;;;;;0.10;0.10;;;;;;;;;;4165147;28;20072;-49
2022/09/17 04:09:24;;;;;;;0.10;0.10;;;;;;;;;;4165635;28;20061;-47
2022/09/17 04:11:26;;;;;;;0.00;0.00;;;;;;;;;;4164752;28;20103;-48
2022/09/17 04:13:27;;;;;;;0.20;0.20;;;;;;;;;;4163836;28;20497;-49
2022/09/17 04:15:28;;;;;;;0.10;0.10;;;;;;;;;;4165313;28;20050;-49
2022/09/17 04:17:29;;;;;;;0.00;0.00;;;;;;;;;;4164724;28;20109;-48
2022/09/17 04:19:31;;;;;;;0.10;0.10;;;;;;;;;;4165052;28;20049;-48
2022/09/17 04:21:32;;;;;;;0.00;0.00;;;;;;;;;;4165222;28;20188;-51
2022/09/17 04:23:33;;;;;;;0.00;0.00;;;;;;;;;;4165046;28;20344;-50
2022/09/17 04:25:34;;;;;;;0.20;0.10;;;;;;;;;;4164938;28;20489;-50
2022/09/17 04:27:35;;;;;;;0.00;0.00;;;;;;;;;;4164862;28;20053;-49
2022/09/17 04:29:37;;;;;;;0.10;0.10;;;;;;;;;;4165113;28;20119;-52
2022/09/17 04:31:39;;;;;;;0.00;0.00;;;;;;;;;;4165082;28;20105;-49
2022/09/17 04:33:40;;;;;;;0.10;0.10;;;;;;;;;;4164416;28;20061;-51
2022/09/17 04:35:42;;;;;;;0.10;0.10;;;;;;;;;;4164979;28;20403;-51
2022/09/17 04:37:51;;;;;;;0.17;0.13;;;;;;;;;;4164762;28;20488;-47
2022/09/17 04:39:52;;;;;;;0.15;0.10;;;;;;;;;;4163669;28;20521;-52
2022/09/17 04:41:54;;;;;;;0.10;0.10;;;;;;;;;;4164854;28;20065;-47
2022/09/17 04:43:55;;;;;;;0.03;0.03;;;;;;;;;;4164699;28;20498;-49
2022/09/17 04:45:56;;;;;;;0.10;0.10;;;;;;;;;;4164737;28;20477;-49
2022/09/17 04:47:57;;;;;;;0.00;0.00;;;;;;;;;;4164213;28;20053;-49
2022/09/17 04:49:58;;;;;;;0.10;0.10;;;;;;;;;;4161648;28;20057;-48
2022/09/17 04:52:00;;;;;;;0.00;0.00;;;;;;;;;;4164843;28;20057;-49
2022/09/17 04:54:01;;;;;;;0.35;0.10;;;;;;;;;;4164484;28;20055;-49
2022/09/17 04:56:02;;;;;;;0.25;0.13;;;;;;;;;;4164605;28;20065;-49
2022/09/17 04:58:03;;;;;;;0.10;0.10;;;;;;;;;;4164122;28;20127;-47
2022/09/17 05:00:09;;;;;;;0.05;0.05;;;;;;;;;;4164606;28;20083;-48
2022/09/17 05:02:10;;;;;;;0.00;0.00;;;;;;;;;;4164255;28;20069;-48
2022/09/17 05:04:11;;;;;;;0.10;0.10;;;;;;;;;;4164261;28;20111;-49
2022/09/17 05:06:13;;;;;;;0.05;0.05;;;;;;;;;;4164419;28;20053;-47
2022/09/17 05:08:14;;;;;;;0.03;0.03;;;;;;;;;;4164368;28;20057;-49
2022/09/17 05:10:17;;;;;;;0.10;0.10;;;;;;;;;;4164400;28;20623;-49
2022/09/17 05:12:19;;;;;;;0.10;0.10;;;;;;;;;;4163042;28;20064;-49
2022/09/17 05:14:20;;;;;;;0.17;0.10;;;;;;;;;;4163007;28;20099;-48
2022/09/17 05:16:21;;;;;;;0.25;0.10;;;;;;;;;;4162863;28;20072;-49
2022/09/17 05:18:22;;;;;;;0.00;0.00;;;;;;;;;;4163618;28;20049;-47
2022/09/17 05:20:24;;;;;;;0.10;0.10;;;;;;;;;;4164256;28;20111;-48
2022/09/17 05:22:25;;;;;;;0.10;0.10;;;;;;;;;;4164031;28;20160;-49
2022/09/17 05:24:26;;;;;;;0.00;0.00;;;;;;;;;;4164074;28;20076;-49
2022/09/17 05:26:28;;;;;;;0.10;0.00;;;;;;;;;;4164310;28;20120;-49
2022/09/17 05:28:29;;;;;;;0.10;0.10;;;;;;;;;;4164023;28;20049;-47
2022/09/17 05:30:30;;;;;;;0.10;0.10;;;;;;;;;;4164094;28;20091;-52
2022/09/17 05:32:33;;;;;;;0.03;0.03;;;;;;;;;;4163572;28;20065;-49
2022/09/17 05:34:34;;;;;;;0.32;0.10;;;;;;;;;;4164199;28;20053;-48
2022/09/17 05:36:35;;;;;;;0.00;0.00;;;;;;;;;;4164059;28;20058;-48
2022/09/17 05:38:37;;;;;;;0.00;0.00;;;;;;;;;;4163863;28;20111;-50
2022/09/17 05:40:38;;;;;;;0.08;0.08;;;;;;;;;;4162794;28;20104;-49
2022/09/17 05:42:39;;;;;;;0.00;0.00;;;;;;;;;;4164148;28;20064;-50
2022/09/17 05:44:40;;;;;;;0.20;0.10;;;;;;;;;;4163979;28;20053;-49
2022/09/17 05:46:41;;;;;;;0.10;0.10;;;;;;;;;;4163669;28;20104;-48
2022/09/17 05:48:43;;;;;;;0.10;0.00;;;;;;;;;;4163650;28;20108;-48
2022/09/17 05:50:44;;;;;;;0.10;0.03;;;;;;;;;;4163734;28;20448;-50
2022/09/17 05:52:45;;;;;;;0.10;0.10;;;;;;;;;;4163725;28;20408;-48
2022/09/17 05:54:47;;;;;;;0.10;0.10;;;;;;;;;;4163831;28;20053;-48
2022/09/17 05:56:52;;;;;;;0.10;0.10;;;;;;;;;;4164037;28;20053;-50
2022/09/17 05:58:56;;;;;;;0.00;0.00;;;;;;;;;;4161942;28;20100;-47
2022/09/17 06:00:59;;;;;;;0.10;0.10;;;;;;;;;;4163288;28;20053;-49
2022/09/17 06:03:01;;;;;;;0.05;0.05;;;;;;;;;;4162833;28;20061;-48
2022/09/17 06:05:03;;;;;;;0.00;0.00;;;;;;;;;;4163399;28;20123;-48
2022/09/17 06:07:07;;;;;;;0.10;0.10;;;;;;;;;;4163444;28;20107;-50
2022/09/17 06:09:09;;;;;;;0.17;0.17;;;;;;;;;;4162706;28;20119;-50
2022/09/17 06:11:10;;;;;;;0.10;0.10;;;;;;;;;;4163353;28;20054;-49
2022/09/17 06:13:11;;;;;;;0.00;0.00;;;;;;;;;;4163223;28;20469;-49
2022/09/17 06:15:13;;;;;;;0.10;0.10;;;;;;;;;;4163557;28;20049;-51
2022/09/17 06:17:14;;;;;;;0.10;0.05;;;;;;;;;;4162840;28;20053;-51
2022/09/17 06:19:15;;;;;;;0.10;0.10;;;;;;;;;;4163497;28;20064;-49
2022/09/17 06:21:17;;;;;;;0.10;0.10;;;;;;;;;;4163263;28;20619;-51
2022/09/17 06:23:18;;;;;;;0.17;0.08;;;;;;;;;;4163109;28;20049;-49
2022/09/17 06:25:19;;;;;;;0.03;0.03;;;;;;;;;;4161928;28;20054;-51
2022/09/17 06:27:21;;;;;;;0.00;0.00;;;;;;;;;;4162953;28;20444;-49
2022/09/17 06:29:22;;;;;;;0.10;0.10;;;;;;;;;;4163335;28;20054;-49
2022/09/17 06:31:23;;;;;;;0.00;0.00;;;;;;;;;;4161768;28;20557;-49
2022/09/17 06:33:25;;;;;;;0.08;0.08;;;;;;;;;;4162645;28;20119;-50
2022/09/17 06:35:26;;;;;;;0.10;0.10;;;;;;;;;;4161898;28;20590;-52
2022/09/17 06:37:30;;;;;;;0.10;0.10;;;;;;;;;;4161764;28;20049;-51
2022/09/17 06:39:31;;;;;;;0.10;0.10;;;;;;;;;;4163034;28;20145;-52
2022/09/17 06:41:33;;;;;;;0.10;0.10;;;;;;;;;;4163381;28;20918;-50
2022/09/17 06:43:34;;;;;;;0.00;0.00;;;;;;;;;;4161775;28;20191;-52
2022/09/17 06:45:35;;;;;;;0.20;0.10;;;;;;;;;;4162875;28;20084;-51
2022/09/17 06:47:36;;;;;;;0.10;0.10;;;;;;;;;;4162411;28;20111;-49
2022/09/17 06:49:38;;;;;;;0.10;0.10;;;;;;;;;;4162906;28;20104;-49
2022/09/17 06:51:39;;;;;;;0.10;0.10;;;;;;;;;;4162792;28;20095;-50
2022/09/17 06:53:40;;;;;;;0.10;0.10;;;;;;;;;;4162697;28;20058;-49
2022/09/17 06:55:41;;;;;;;0.10;0.10;;;;;;;;;;4163118;28;20060;-51
2022/09/17 06:57:42;;;;;;;0.47;0.17;;;;;;;;;;4162603;28;20551;-49
2022/09/17 06:59:43;;;;;;;0.10;0.10;;;;;;;;;;4149457;28;20060;-50
2022/09/17 07:01:46;;;;;;;0.10;0.10;;;;;;;;;;4160731;28;20416;-50
2022/09/17 07:03:48;;;;;;;0.00;0.00;;;;;;;;;;4158720;28;20057;-48
2022/09/17 07:05:50;;;;;;;0.13;0.10;;;;;;;;;;4160685;28;20104;-49
2022/09/17 07:07:51;;;;;;;0.32;0.08;;;;;;;;;;4160684;28;20091;-50
2022/09/17 07:09:52;;;;;;;0.22;0.10;;;;;;;;;;4160894;28;20121;-49
2022/09/17 07:11:54;;;;;;;0.10;0.10;;;;;;;;;;4160319;28;20516;-48
2022/09/17 07:13:55;;;;;;;0.00;0.00;;;;;;;;;;4159113;28;20228;-48
2022/09/17 07:16:00;;;;;;;0.10;0.00;;;;;;;;;;4160741;28;20057;-48
2022/09/17 07:18:10;;;;;;;0.03;0.03;;;;;;;;;;4158913;28;20071;-50
2022/09/17 07:20:11;;;;;;;0.10;0.00;;;;;;;;;;4162034;28;20053;-46
2022/09/17 07:22:13;;;;;;;0.10;0.10;;;;;;;;;;4146286;28;20061;-49
2022/09/17 07:24:14;;;;;;;0.20;0.20;;;;;;;;;;4164067;28;20163;-49
2022/09/17 07:26:15;;;;;;;0.08;0.03;;;;;;;;;;4164291;28;20049;-49
2022/09/17 07:28:16;;;;;;;0.00;0.00;;;;;;;;;;4164039;28;20061;-50
2022/09/17 07:30:19;;;;;;;0.00;0.00;;;;;;;;;;4163987;28;20413;-49
2022/09/17 07:32:20;;;;;;;0.05;0.05;;;;;;;;;;4161903;28;20069;-51
2022/09/17 07:34:22;;;;;;;0.20;0.10;;;;;;;;;;4164089;28;20096;-51
2022/09/17 07:36:23;;;;;;;0.00;0.00;;;;;;;;;;4164093;28;20068;-51
2022/09/17 07:38:26;;;;;;;0.10;0.10;;;;;;;;;;4163987;28;20111;-48
2022/09/17 07:40:28;;;;;;;0.00;0.00;;;;;;;;;;4163740;28;20053;-50
2022/09/17 07:42:30;;;;;;;0.00;0.00;;;;;;;;;;4163740;28;20057;-50
2022/09/17 07:44:31;;;;;;;0.13;0.10;;;;;;;;;;4163401;28;20511;-50
2022/09/17 07:46:32;;;;;;;0.10;0.10;;;;;;;;;;4163540;28;20551;-48
2022/09/17 07:48:34;;;;;;;0.15;0.10;;;;;;;;;;4163079;28;20057;-50
2022/09/17 07:50:36;;;;;;;0.22;0.15;;;;;;;;;;4163727;28;20057;-50
2022/09/17 07:52:37;;;;;;;0.10;0.10;;;;;;;;;;4163636;28;20079;-49
2022/09/17 07:54:39;;;;;;;0.10;0.00;;;;;;;;;;4163385;28;20594;-47
2022/09/17 07:56:40;;;;;;;0.10;0.10;;;;;;;;;;4163380;28;20057;-49
2022/09/17 07:58:42;;;;;;;0.05;0.05;;;;;;;;;;4163025;28;20057;-50
2022/09/17 08:00:43;;;;;;;0.05;0.05;;;;;;;;;;4163348;28;20420;-51
2022/09/17 08:02:44;;;;;;;0.00;0.00;;;;;;;;;;4162755;28;20065;-50
2022/09/17 08:04:45;;;;;;;0.00;0.00;;;;;;;;;;4162151;28;20072;-48
2022/09/17 08:06:47;;;;;;;0.10;0.10;;;;;;;;;;4163292;28;20175;-50
2022/09/17 08:08:49;;;;;;;0.00;0.00;;;;;;;;;;4163309;28;20061;-48
2022/09/17 08:10:50;;;;;;;0.00;0.00;;;;;;;;;;4162914;28;20501;-49
2022/09/17 08:12:56;;;;;;;0.25;0.10;;;;;;;;;;4161777;28;20111;-51
2022/09/17 08:14:58;;;;;;;0.03;0.03;;;;;;;;;;4163271;28;20085;-51
2022/09/17 08:16:59;;;;;;;0.00;0.00;;;;;;;;;;4163617;28;20084;-49
2022/09/17 08:19:00;;;;;;;0.10;0.10;;;;;;;;;;4162582;28;20061;-48
2022/09/17 08:21:03;;;;;;;0.00;0.00;;;;;;;;;;4163415;28;20072;-51
2022/09/17 08:23:04;;;;;;;0.20;0.13;;;;;;;;;;4162619;28;20533;-50
2022/09/17 08:25:07;;;;;;;0.70;0.10;;;;;;;;;;4162897;28;20062;-47
2022/09/17 08:27:08;;;;;;;0.05;0.05;;;;;;;;;;4163325;28;20053;-49
2022/09/17 08:29:10;;;;;;;0.00;0.00;;;;;;;;;;4163016;28;20107;-49
2022/09/17 08:31:11;;;;;;;0.00;0.00;;;;;;;;;;4162540;28;20442;-50
2022/09/17 08:33:13;;;;;;;0.00;0.00;;;;;;;;;;4162053;28;20406;-48
2022/09/17 08:35:15;;;;;;;0.00;0.00;;;;;;;;;;4162480;28;20663;-49
2022/09/17 08:37:16;;;;;;;0.00;0.00;;;;;;;;;;4162879;28;20064;-48
2022/09/17 08:39:17;;;;;;;0.00;0.00;;;;;;;;;;4163091;28;20194;-49
2022/09/17 08:41:39;;;;;;;0.00;0.00;;;;;;;;;;4162776;28;20060;-49
2022/09/17 08:43:59;;;;;;;0.00;0.00;;;;;;;;;;4162781;28;20515;-49
2022/09/17 08:46:00;;;;;;;0.00;0.00;;;;;;;;;;4162430;28;20080;-49
2022/09/17 08:48:07;;;;;;;0.10;0.10;;;;;;;;;;4163507;28;20103;-48
2022/09/17 08:50:31;;;;;;;0.10;0.10;;;;;;;;;;4163506;28;20057;-48
2022/09/17 08:53:07;;;;;;;0.00;0.00;;;;;;;;;;4163276;28;20057;-47
2022/09/17 08:55:10;;;;;;;0.10;0.10;;;;;;;;;;4164650;28;20096;-50
2022/09/17 08:57:28;;;;;;;0.00;0.00;;;;;;;;;;4164527;28;20057;-49
2022/09/17 08:59:38;;;;;;;0.05;0.03;;;;;;;;;;4164886;28;20058;-51
2022/09/17 09:02:14;;;;;;;0.10;0.10;;;;;;;;;;4164989;28;20107;-49
2022/09/17 09:04:43;;;;;;;0.00;0.00;;;;;;;;;;4163150;28;20057;-50
2022/09/17 09:07:09;;;;;;;0.10;0.00;;;;;;;;;;4164672;28;20049;-46
2022/09/17 09:09:14;;;;;;;0.10;0.10;;;;;;;;;;4164171;28;21013;-49
2022/09/17 09:11:18;;;;;;;0.10;0.10;;;;;;;;;;4164676;28;20049;-48
2022/09/17 09:13:23;;;;;;;0.03;0.03;;;;;;;;;;4163074;28;20103;-49
2022/09/17 09:15:35;;;;;;;0.10;0.10;;;;;;;;;;4164283;28;20115;-50
2022/09/17 09:17:43;;;;;;;0.00;0.00;;;;;;;;;;4163973;28;20103;-49
2022/09/17 09:19:45;;;;;;;0.08;0.00;;;;;;;;;;4164368;28;20068;-49
2022/09/17 09:22:02;;;;;;;0.10;0.10;;;;;;;;;;4164149;28;20167;-51
2022/09/17 09:24:09;;;;;;;0.20;0.10;;;;;;;;;;4164182;28;20352;-48
2022/09/17 09:26:19;;;;;;;0.03;0.00;;;;;;;;;;4146514;28;20050;-49
2022/09/17 09:28:31;;;;;;;0.00;0.00;;;;;;;;;;4164122;28;20382;-48
2022/09/17 09:31:03;;;;;;;0.10;0.10;;;;;;;;;;4162979;28;20099;-47
2022/09/17 09:33:11;;;;;;;0.22;0.10;;;;;;;;;;4163622;28;20065;-50
2022/09/17 09:35:15;;;;;;;0.10;0.10;;;;;;;;;;4164209;28;20465;-50
2022/09/17 09:37:22;;;;;;;0.10;0.03;;;;;;;;;;4163652;28;20444;-49
2022/09/17 09:39:28;;;;;;;0.00;0.00;;;;;;;;;;4163947;28;20061;-49
2022/09/17 09:41:36;;;;;;;0.00;0.00;;;;;;;;;;4162785;28;20054;-49
2022/09/17 09:43:49;;;;;;;0.05;0.05;;;;;;;;;;4161404;28;20068;-49
2022/09/17 09:46:05;;;;;;;0.20;0.13;;;;;;;;;;4162457;28;20546;-49
2022/09/17 09:48:13;;;;;;;0.10;0.10;;;;;;;;;;4161877;28;20489;-48
2022/09/17 09:50:34;;;;;;;0.00;0.00;;;;;;;;;;4160798;28;20564;-49
2022/09/17 09:52:58;;;;;;;0.00;0.00;;;;;;;;;;4161688;28;20127;-48
2022/09/17 09:55:20;;;;;;;0.10;0.10;;;;;;;;;;4160549;28;20103;-49
2022/09/17 09:57:32;;;;;;;0.10;0.10;;;;;;;;;;4161604;28;20460;-50
2022/09/17 09:59:36;;;;;;;0.00;0.00;;;;;;;;;;4160528;28;20057;-49
2022/09/17 10:01:41;;;;;;;0.00;0.00;;;;;;;;;;4160215;28;20339;-48
2022/09/17 10:03:44;;;;;;;0.03;0.03;;;;;;;;;;4160538;28;20087;-49
2022/09/17 10:06:05;;;;;;;0.00;0.00;;;;;;;;;;4161366;28;20517;-52
2022/09/17 10:08:13;;;;;;;;;;;;;;;;;;4161953;28;20111;-49
2022/09/17 10:10:14;;;;;;;0.10;0.10;;;;;;;;;;4161635;28;19925;-48
2022/09/17 10:12:16;;;;;;;0.10;0.10;;;;;;;;;;4161531;28;20096;-49
2022/09/17 10:14:22;;;;;;;0.10;0.10;;;;;;;;;;4161001;28;20064;-50
2022/09/17 10:16:26;;;;;;;0.00;0.00;;;;;;;;;;4160105;28;20103;-46
2022/09/17 10:18:27;;;;;;;0.08;0.00;;;;;;;;;;4160890;28;20107;-49
2022/09/17 10:20:28;;;;;;;0.00;0.00;;;;;;;;;;4161171;28;20508;-48
2022/09/17 10:22:32;;;;;;;0.00;0.00;;;;;;;;;;4159942;28;20108;-48
2022/09/17 10:24:33;;;;;;;0.00;0.00;;;;;;;;;;4161191;28;20080;-49
2022/09/17 10:26:35;;;;;;;0.00;0.00;;;;;;;;;;4159381;28;20065;-50
2022/09/17 10:28:45;;;;;;;0.20;0.10;;;;;;;;;;4161236;28;20083;-49
2022/09/17 10:31:09;;;;;;;;;;;;;;;;;;4160468;28;20140;-49
2022/09/17 10:33:12;;;;;;;0.00;0.00;;;;;;;;;;4160783;28;19925;-48
2022/09/17 10:35:13;;;;;;;0.10;0.10;;;;;;;;;;4161110;28;20136;-47
2022/09/17 10:37:33;;;;;;;0.10;0.10;;;;;;;;;;4161007;28;20143;-47
2022/09/17 10:39:47;;;;;;;0.08;0.08;;;;;;;;;;4153067;28;20120;-49
2022/09/17 10:42:08;;;;;;;0.05;0.05;;;;;;;;;;4144610;28;20452;-52
2022/09/17 10:44:16;;;;;;;0.00;0.00;;;;;;;;;;4143468;28;20384;-51
2022/09/17 10:46:26;;;;;;;0.08;0.08;;;;;;;;;;4143327;28;20057;-47
2022/09/17 10:48:30;;;;;;;0.00;0.00;;;;;;;;;;4142932;28;20088;-49
2022/09/17 10:50:33;;;;;;;0.00;0.00;;;;;;;;;;4151604;28;20123;-49
2022/09/17 10:52:37;;;;;;;0.10;0.10;;;;;;;;;;4159091;28;20501;-50
2022/09/17 10:55:04;;;;;;;0.10;0.10;;;;;;;;;;4143206;28;20054;-48
2022/09/17 10:57:05;;;;;;;0.00;0.00;;;;;;;;;;4159427;28;20504;-48
2022/09/17 10:59:37;;;;;;;0.00;0.00;;;;;;;;;;4159541;28;20447;-50
2022/09/17 11:01:46;;;;;;;0.00;0.00;;;;;;;;;;4159578;28;20115;-47
2022/09/17 11:04:05;;;;;;;0.30;0.00;;;;;;;;;;4159634;28;20053;-48
2022/09/17 11:06:32;;;;;;;0.10;0.10;;;;;;;;;;4161284;28;20087;-50
2022/09/17 11:08:41;;;;;;;0.10;0.10;;;;;;;;;;4160675;28;20061;-47
2022/09/17 11:10:57;;;;;;;0.03;0.03;;;;;;;;;;4159638;28;20084;-49
2022/09/17 11:13:24;;;;;;;0.00;0.00;;;;;;;;;;4160636;28;20547;-48
2022/09/17 11:16:03;;;;;;;0.10;0.10;;;;;;;;;;4159414;28;20115;-48
2022/09/17 11:18:14;;;;;;;0.10;0.10;;;;;;;;;;4160162;28;20058;-51
2022/09/17 11:20:37;;;;;;;0.00;0.00;;;;;;;;;;4160605;28;20495;-47
2022/09/17 11:23:00;;;;;;;0.00;0.00;;;;;;;;;;4160595;28;20099;-51
2022/09/17 11:25:43;;;;;;;0.13;0.10;;;;;;;;;;4160456;28;20405;-50
2022/09/17 11:27:50;;;;;;;0.15;0.03;;;;;;;;;;4158876;28;20060;-49
2022/09/17 11:30:03;;;;;;;0.00;0.00;;;;;;;;;;4162580;28;20455;-49
2022/09/17 11:32:11;;;;;;;0.10;0.10;;;;;;;;;;4162511;28;20511;-51
2022/09/17 11:34:36;;;;;;;0.20;0.10;;;;;;;;;;4162802;28;20057;-50
2022/09/17 11:36:44;;;;;;;0.10;0.10;;;;;;;;;;4161293;28;20054;-52
2022/09/17 11:38:50;;;;;;;0.10;0.10;;;;;;;;;;4162473;28;20119;-52
2022/09/17 11:41:12;;;;;;;0.00;0.00;;;;;;;;;;4162672;28;20053;-48
2022/09/17 11:43:23;;;;;;;0.00;0.00;;;;;;;;;;4161236;28;20163;-49
2022/09/17 11:45:37;;;;;;;0.10;0.00;;;;;;;;;;4162331;28;20053;-52
2022/09/17 11:47:49;;;;;;;0.00;0.00;;;;;;;;;;4160671;28;20107;-52
2022/09/17 11:49:59;;;;;;;0.10;0.10;;;;;;;;;;4162492;28;20053;-49
2022/09/17 11:52:05;;;;;;;;;;;;;;;;;;4162941;28;20107;-50
2022/09/17 11:54:26;;;;;;;0.08;0.08;;;;;;;;;;4162390;28;20007;-51
2022/09/17 11:56:35;;;;;;;0.10;0.10;;;;;;;;;;4151102;28;20474;-50
2022/09/17 11:58:41;;;;;;;0.10;0.10;;;;;;;;;;4160918;28;20422;-50
2022/09/17 12:00:50;;;;;;;0.10;0.10;;;;;;;;;;4162381;28;20520;-49
2022/09/17 12:03:25;;;;;;;0.10;0.10;;;;;;;;;;4160255;28;20099;-49
2022/09/17 12:05:38;;;;;;;0.00;0.00;;;;;;;;;;4162006;28;20076;-50
2022/09/17 12:07:45;;;;;;;0.00;0.00;;;;;;;;;;4146835;28;20460;-49
2022/09/17 12:09:52;;;;;;;0.30;0.10;;;;;;;;;;4180546;28;20459;-49
2022/09/17 12:12:00;;;;;;;0.00;0.00;;;;;;;;;;4165655;28;20065;-47
2022/09/17 12:14:05;;;;;;;0.00;0.00;;;;;;;;;;4165262;28;20113;-48
2022/09/17 12:16:14;;;;;;;0.00;0.00;;;;;;;;;;4165434;28;20609;-49
2022/09/17 12:18:45;;;;;;;0.00;0.00;;;;;;;;;;4164638;28;20084;-47
2022/09/17 12:20:49;;;;;;;0.00;0.00;;;;;;;;;;4164074;28;20405;-49
2022/09/17 12:22:51;;;;;;;0.10;0.10;;;;;;;;;;4165178;28;20460;-49
2022/09/17 12:24:53;;;;;;;0.45;0.05;;;;;;;;;;4165125;28;20054;-50
2022/09/17 12:27:23;;;;;;;0.30;0.03;;;;;;;;;;4165101;28;20095;-48
2022/09/17 12:29:49;;;;;;;0.03;0.03;;;;;;;;;;4165262;28;20089;-51
2022/09/17 12:31:57;;;;;;;0.08;0.05;;;;;;;;;;4163755;28;20083;-49
2022/09/17 12:34:33;;;;;;;0.10;0.10;;;;;;;;;;4163250;28;20386;-51
2022/09/17 12:36:49;;;;;;;0.00;0.00;;;;;;;;;;4165205;28;20048;-49
2022/09/17 12:39:11;;;;;;;0.00;0.00;;;;;;;;;;4165115;28;20068;-52
2022/09/17 12:41:26;;;;;;;0.10;0.10;;;;;;;;;;4165230;28;20104;-49
2022/09/17 12:43:50;;;;;;;0.08;0.08;;;;;;;;;;4163490;28;20053;-48